createdAt,value
2022-08-03T00:00:34.669Z,55.44
2022-08-03T00:02:36.233Z,55.54
2022-08-03T00:04:37.796Z,55.65
2022-08-03T00:06:40.408Z,55.57
2022-08-03T00:08:41.945Z,55.42
2022-08-03T00:10:45.044Z,55.33
2022-08-03T00:12:46.588Z,55.43
2022-08-03T00:14:48.125Z,55.48
2022-08-03T00:16:50.123Z,55.73
2022-08-03T00:18:51.812Z,55.97
2022-08-03T00:20:53.363Z,55.93
2022-08-03T00:22:54.936Z,56.05
2022-08-03T00:24:56.648Z,56.04
2022-08-03T00:26:59.602Z,55.98
2022-08-03T00:29:01.245Z,56.27
2022-08-03T00:31:02.952Z,56.68
2022-08-03T00:33:04.948Z,56.63
2022-08-03T00:35:12.338Z,56.64
2022-08-03T00:37:19.620Z,56.95
2022-08-03T00:39:21.164Z,56.88
2022-08-03T00:41:22.684Z,56.94
2022-08-03T00:43:26.529Z,57.17
2022-08-03T00:45:29.658Z,57.47
2022-08-03T00:47:31.193Z,57.76
2022-08-03T00:49:32.975Z,57.86
2022-08-03T00:51:34.588Z,58.29
2022-08-03T00:53:36.761Z,58.06
2022-08-03T00:55:39.168Z,58.35
2022-08-03T00:57:41.921Z,58.51
2022-08-03T00:59:45.036Z,58.15
2022-08-03T01:01:46.648Z,57.88
2022-08-03T01:03:48.261Z,57.92
2022-08-03T01:05:55.860Z,57.85
2022-08-03T01:08:04.164Z,57.89
2022-08-03T01:10:13.635Z,57.79
2022-08-03T01:12:23.708Z,57.51
2022-08-03T01:14:32.436Z,57.44
2022-08-03T01:16:55.596Z,57.54
2022-08-03T01:19:02.821Z,57.91
2022-08-03T01:21:21.690Z,57.66
2022-08-03T01:23:37.283Z,57.61
2022-08-03T01:25:55.384Z,58.11
2022-08-03T01:28:10.316Z,57.62
2022-08-03T01:30:14.432Z,57.47
2022-08-03T01:33:02.615Z,57.29
2022-08-03T01:34:46.798Z,57.52
2022-08-03T01:36:52.692Z,57.48
2022-08-03T01:38:58.568Z,57.54
2022-08-03T01:41:04.839Z,57.66
2022-08-03T01:43:08.803Z,57.35
2022-08-03T01:45:13.498Z,57.85
2022-08-03T01:47:21.013Z,57.48
2022-08-03T01:49:22.681Z,57.82
2022-08-03T01:51:26.135Z,57.42
2022-08-03T01:53:49.004Z,57.31
2022-08-03T01:55:54.321Z,57.05
2022-08-03T01:58:05.819Z,56.99
2022-08-03T02:00:09.244Z,56.83
2022-08-03T02:02:28.813Z,56.30
2022-08-03T02:04:38.133Z,56.55
2022-08-03T02:07:02.151Z,56.47
2022-08-03T02:09:02.633Z,56.23
2022-08-03T02:11:05.833Z,56.12
2022-08-03T02:13:08.921Z,56.65
2022-08-03T02:15:11.875Z,56.21
2022-08-03T02:17:16.562Z,56.28
2022-08-03T02:19:19.407Z,56.00
2022-08-03T02:21:56.927Z,55.74
2022-08-03T02:23:45.130Z,55.61
2022-08-03T02:25:50.889Z,55.80
2022-08-03T02:27:56.427Z,55.71
2022-08-03T02:30:05.351Z,56.02
2022-08-03T02:32:09.876Z,56.02
2022-08-03T02:34:14.642Z,55.75
2022-08-03T02:36:19.617Z,55.58
2022-08-03T02:38:28.210Z,55.58
2022-08-03T02:40:31.122Z,55.48
2022-08-03T02:42:35.222Z,55.53
2022-08-03T02:44:38.289Z,55.95
2022-08-03T02:46:43.817Z,55.58
2022-08-03T02:48:48.279Z,55.53
2022-08-03T02:50:53.122Z,55.69
2022-08-03T02:52:56.938Z,56.41
2022-08-03T02:55:02.272Z,56.60
2022-08-03T02:57:07.016Z,56.73
2022-08-03T02:59:10.175Z,56.67
2022-08-03T03:01:12.725Z,56.16
2022-08-03T03:03:15.049Z,56.40
2022-08-03T03:05:55.855Z,56.57
2022-08-03T03:07:51.135Z,56.31
2022-08-03T03:09:54.689Z,56.13
2022-08-03T03:11:58.005Z,55.96
2022-08-03T03:14:00.877Z,55.84
2022-08-03T03:16:04.590Z,55.48
2022-08-03T03:18:07.588Z,55.87
2022-08-03T03:20:10.065Z,55.74
2022-08-03T03:22:13.114Z,55.64
2022-08-03T03:24:16.279Z,55.77
2022-08-03T03:26:18.160Z,56.02
2022-08-03T03:28:21.554Z,55.80
2022-08-03T03:30:23.320Z,56.07
2022-08-03T03:32:26.771Z,56.11
2022-08-03T03:34:30.091Z,56.12
2022-08-03T03:36:32.222Z,55.64
2022-08-03T03:38:34.310Z,55.41
2022-08-03T03:40:36.465Z,55.39
2022-08-03T03:42:38.097Z,55.15
2022-08-03T03:44:41.064Z,55.26
2022-08-03T03:46:42.787Z,55.32
2022-08-03T03:48:44.774Z,55.40
2022-08-03T03:50:46.647Z,55.52
2022-08-03T03:52:48.234Z,55.56
2022-08-03T03:54:49.811Z,55.75
2022-08-03T03:56:51.642Z,55.77
2022-08-03T03:58:53.878Z,55.64
2022-08-03T04:00:56.905Z,55.44
2022-08-03T04:02:58.567Z,55.36
2022-08-03T04:05:00.097Z,55.14
2022-08-03T04:07:01.636Z,55.00
2022-08-03T04:09:03.931Z,54.76
2022-08-03T04:11:12.779Z,54.85
2022-08-03T04:13:15.882Z,54.98
2022-08-03T04:15:18.939Z,54.96
2022-08-03T04:17:26.048Z,54.68
2022-08-03T04:19:35.717Z,54.64
2022-08-03T04:21:43.382Z,53.99
2022-08-03T04:23:48.680Z,53.83
2022-08-03T04:25:53.245Z,53.88
2022-08-03T04:28:09.728Z,52.40
2022-08-03T04:30:17.684Z,52.75
2022-08-03T04:32:23.279Z,53.18
2022-08-03T04:34:24.860Z,52.76
2022-08-03T04:36:27.901Z,52.05
2022-08-03T04:38:31.258Z,52.55
2022-08-03T04:40:34.450Z,52.13
2022-08-03T04:42:38.040Z,52.32
2022-08-03T04:44:42.466Z,51.49
2022-08-03T04:46:46.761Z,50.83
2022-08-03T04:48:57.041Z,49.39
2022-08-03T04:50:59.072Z,46.51
2022-08-03T04:53:00.878Z,43.57
2022-08-03T04:55:03.938Z,40.95
2022-08-03T04:57:05.438Z,39.69
2022-08-03T04:59:07.158Z,39.18
2022-08-03T05:01:08.739Z,38.42
2022-08-03T05:03:23.692Z,37.96
2022-08-03T05:05:49.473Z,38.25
2022-08-03T05:07:49.703Z,38.21
2022-08-03T05:09:53.011Z,38.78
2022-08-03T05:12:03.513Z,38.91
2022-08-03T05:14:05.079Z,39.42
2022-08-03T05:16:06.582Z,40.11
2022-08-03T05:18:13.400Z,39.42
2022-08-03T05:20:18.120Z,39.12
2022-08-03T05:22:22.158Z,38.85
2022-08-03T05:24:23.676Z,38.50
2022-08-03T05:26:25.225Z,36.95
2022-08-03T05:28:28.279Z,36.47
2022-08-03T05:30:33.385Z,36.15
2022-08-03T05:32:36.154Z,35.50
2022-08-03T05:34:37.782Z,35.41
2022-08-03T05:36:39.313Z,35.52
2022-08-03T05:38:42.391Z,34.72
2022-08-03T05:40:56.669Z,34.74
2022-08-03T05:42:59.455Z,34.60
2022-08-03T05:45:04.238Z,34.63
2022-08-03T05:47:06.239Z,35.79
2022-08-03T05:49:07.844Z,34.51
2022-08-03T05:51:09.715Z,34.37
2022-08-03T05:53:11.329Z,34.15
2022-08-03T05:55:14.388Z,33.42
2022-08-03T05:57:15.958Z,34.21
2022-08-03T05:59:37.695Z,33.85
2022-08-03T06:01:39.514Z,33.97
2022-08-03T06:03:41.139Z,34.16
2022-08-03T06:05:43.188Z,34.53
2022-08-03T06:07:55.022Z,34.39
2022-08-03T06:10:37.445Z,34.45
2022-08-03T06:12:20.175Z,33.82
2022-08-03T06:14:21.903Z,33.76
2022-08-03T06:16:23.465Z,33.74
2022-08-03T06:18:25.139Z,33.93
2022-08-03T06:20:27.429Z,33.52
2022-08-03T06:22:29.108Z,33.52
2022-08-03T06:24:31.593Z,33.82
2022-08-03T06:26:33.108Z,33.97
2022-08-03T06:28:52.264Z,33.67
2022-08-03T06:30:55.468Z,32.93
2022-08-03T06:32:57.018Z,33.35
2022-08-03T06:34:58.595Z,32.76
2022-08-03T06:37:02.366Z,32.31
2022-08-03T06:39:04.216Z,31.75
2022-08-03T06:41:05.901Z,31.61
2022-08-03T06:43:12.367Z,32.15
2022-08-03T06:45:15.734Z,32.72
2022-08-03T06:47:17.313Z,32.44
2022-08-03T06:49:18.947Z,32.25
2022-08-03T06:51:21.291Z,33.06
2022-08-03T06:53:42.813Z,32.66
2022-08-03T06:55:44.330Z,32.89
2022-08-03T06:57:45.904Z,33.02
2022-08-03T07:00:08.544Z,33.04
2022-08-03T07:02:10.516Z,32.87
2022-08-03T07:04:12.099Z,34.33
2022-08-03T07:06:13.636Z,33.07
2022-08-03T07:08:15.265Z,33.93
2022-08-03T07:10:16.808Z,32.83
2022-08-03T07:12:18.615Z,33.23
2022-08-03T07:14:20.413Z,32.25
2022-08-03T07:16:22.129Z,31.89
2022-08-03T07:18:29.312Z,31.52
2022-08-03T07:20:32.728Z,32.06
2022-08-03T07:22:35.131Z,32.11
2022-08-03T07:24:36.763Z,31.91
2022-08-03T07:26:38.346Z,32.40
2022-08-03T07:28:39.864Z,32.74
2022-08-03T07:30:41.455Z,32.79
2022-08-03T07:32:50.166Z,32.48
2022-08-03T07:34:58.323Z,32.27
2022-08-03T07:37:02.013Z,31.92
2022-08-03T07:39:15.402Z,31.87
2022-08-03T07:41:19.122Z,32.11
2022-08-03T07:43:20.932Z,31.25
2022-08-03T07:45:22.471Z,31.45
2022-08-03T07:47:25.512Z,30.83
2022-08-03T07:49:40.257Z,31.28
2022-08-03T07:51:43.196Z,30.90
2022-08-03T07:53:47.813Z,30.85
2022-08-03T07:55:49.642Z,30.44
2022-08-03T07:58:02.051Z,30.22
2022-08-03T08:00:05.779Z,29.87
2022-08-03T08:02:07.431Z,30.36
2022-08-03T08:04:09.002Z,29.84
2022-08-03T08:06:10.576Z,29.65
2022-08-03T08:08:13.820Z,29.83
2022-08-03T08:10:15.412Z,29.76
2022-08-03T08:12:17.351Z,29.28
2022-08-03T08:14:19.242Z,30.14
2022-08-03T08:16:20.808Z,29.10
2022-08-03T08:18:22.386Z,29.52
2022-08-03T08:20:27.943Z,30.08
2022-08-03T08:22:31.483Z,29.98
2022-08-03T08:24:34.512Z,29.28
2022-08-03T08:26:36.212Z,30.02
2022-08-03T08:28:37.805Z,29.54
2022-08-03T08:30:39.368Z,29.87
2022-08-03T08:32:41.398Z,29.68
2022-08-03T08:34:42.943Z,28.83
2022-08-03T08:36:44.530Z,29.41
2022-08-03T08:38:46.392Z,28.53
2022-08-03T08:40:49.521Z,28.72
2022-08-03T08:42:58.420Z,29.08
2022-08-03T08:45:00.996Z,29.27
2022-08-03T08:47:03.626Z,28.03
2022-08-03T08:49:08.814Z,27.56
2022-08-03T08:51:12.177Z,28.47
2022-08-03T08:53:17.463Z,28.72
2022-08-03T08:55:22.500Z,27.40
2022-08-03T08:57:42.489Z,27.61
2022-08-03T08:59:48.689Z,27.72
2022-08-03T09:01:56.499Z,27.07
2022-08-03T09:03:58.076Z,27.81
2022-08-03T09:06:00.945Z,27.15
2022-08-03T09:08:06.008Z,27.63
2022-08-03T09:10:12.827Z,26.62
2022-08-03T09:12:39.156Z,25.71
2022-08-03T09:14:49.712Z,26.93
2022-08-03T09:17:01.033Z,26.98
2022-08-03T09:19:12.371Z,27.16
2022-08-03T09:21:31.244Z,27.58
2022-08-03T09:23:51.899Z,27.71
2022-08-03T09:26:02.834Z,26.84
2022-08-03T09:28:07.998Z,26.61
2022-08-03T09:30:32.533Z,26.70
2022-08-03T09:32:37.162Z,25.76
2022-08-03T09:34:38.908Z,25.46
2022-08-03T09:36:42.375Z,25.94
2022-08-03T09:39:01.413Z,25.35
2022-08-03T09:41:02.965Z,25.06
2022-08-03T09:43:04.815Z,24.75
2022-08-03T09:45:06.883Z,25.84
2022-08-03T09:47:10.784Z,25.42
2022-08-03T09:49:13.208Z,26.04
2022-08-03T09:52:28.795Z,25.84
2022-08-03T09:53:57.246Z,24.60
2022-08-03T09:56:33.399Z,24.94
2022-08-03T09:58:26.676Z,24.57
2022-08-03T10:00:28.362Z,24.47
2022-08-03T10:02:31.280Z,24.83
2022-08-03T10:04:32.822Z,24.20
2022-08-03T10:06:34.394Z,24.40
2022-08-03T10:08:35.973Z,24.90
2022-08-03T10:10:42.819Z,24.67
2022-08-03T10:12:45.222Z,24.23
2022-08-03T10:14:48.067Z,23.57
2022-08-03T10:16:49.876Z,23.91
2022-08-03T10:18:52.754Z,24.44
2022-08-03T10:20:59.100Z,23.91
2022-08-03T10:23:01.697Z,23.57
2022-08-03T10:25:07.157Z,23.42
2022-08-03T10:27:11.377Z,24.23
2022-08-03T10:29:18.353Z,24.67
2022-08-03T10:31:22.211Z,25.11
2022-08-03T10:33:51.104Z,24.96
2022-08-03T10:35:52.996Z,25.66
2022-08-03T10:37:58.991Z,25.00
2022-08-03T10:40:02.373Z,24.58
2022-08-03T10:42:05.543Z,24.13
2022-08-03T10:44:19.072Z,24.97
2022-08-03T10:46:21.343Z,24.92
2022-08-03T10:48:24.146Z,25.22
2022-08-03T10:50:26.321Z,24.47
2022-08-03T10:52:31.912Z,25.13
2022-08-03T10:54:40.736Z,24.22
2022-08-03T10:56:48.038Z,23.88
2022-08-03T10:58:57.521Z,24.55
2022-08-03T11:00:59.608Z,25.27
2022-08-03T11:03:08.851Z,24.46
2022-08-03T11:05:27.584Z,24.51
2022-08-03T11:07:30.458Z,24.46
2022-08-03T11:09:41.690Z,24.32
2022-08-03T11:11:44.658Z,23.96
2022-08-03T11:13:57.894Z,24.56
2022-08-03T11:16:21.495Z,24.50
2022-08-03T11:18:27.051Z,24.15
2022-08-03T11:20:45.145Z,24.98
2022-08-03T11:22:51.616Z,24.60
2022-08-03T11:25:53.758Z,24.24
2022-08-03T11:27:33.492Z,24.18
2022-08-03T11:29:35.005Z,24.13
2022-08-03T11:31:57.673Z,24.89
2022-08-03T11:34:06.076Z,24.42
2022-08-03T11:36:07.854Z,24.19
2022-08-03T11:38:11.820Z,23.84
2022-08-03T11:40:33.594Z,24.38
2022-08-03T11:42:44.652Z,24.63
2022-08-03T11:44:47.580Z,24.92
2022-08-03T11:46:49.423Z,25.01
2022-08-03T11:48:51.315Z,24.78
2022-08-03T11:50:52.965Z,24.60
2022-08-03T11:52:54.708Z,24.64
2022-08-03T11:54:57.655Z,24.67
2022-08-03T11:56:59.374Z,24.77
2022-08-03T11:59:18.599Z,25.00
2022-08-03T12:01:23.878Z,25.05
2022-08-03T12:03:25.490Z,23.80
2022-08-03T12:05:38.566Z,24.14
2022-08-03T12:08:03.495Z,24.39
2022-08-03T12:10:11.247Z,23.73
2022-08-03T12:12:16.066Z,24.36
2022-08-03T12:14:48.791Z,24.36
2022-08-03T12:16:39.739Z,24.11
2022-08-03T12:18:41.300Z,24.05
2022-08-03T12:20:43.449Z,24.27
2022-08-03T12:22:45.094Z,24.34
2022-08-03T12:24:47.261Z,24.26
2022-08-03T12:26:58.401Z,24.54
2022-08-03T12:29:01.180Z,24.86
2022-08-03T12:31:05.046Z,24.65
2022-08-03T12:33:18.976Z,24.58
2022-08-03T12:35:24.437Z,24.43
2022-08-03T12:37:26.776Z,24.83
2022-08-03T12:39:28.483Z,24.49
2022-08-03T12:41:32.014Z,24.45
2022-08-03T12:43:39.437Z,23.79
2022-08-03T12:45:41.348Z,23.92
2022-08-03T12:47:50.369Z,24.09
2022-08-03T12:49:53.098Z,24.08
2022-08-03T12:52:02.682Z,24.04
2022-08-03T12:54:06.981Z,23.81
2022-08-03T12:56:08.496Z,23.85
2022-08-03T12:58:29.394Z,23.95
2022-08-03T13:00:32.628Z,24.28
2022-08-03T13:02:34.207Z,23.61
2022-08-03T13:04:36.519Z,24.08
2022-08-03T13:06:38.081Z,23.83
2022-08-03T13:08:39.859Z,23.98
2022-08-03T13:10:41.390Z,23.89
2022-08-03T13:12:47.694Z,23.93
2022-08-03T13:14:50.992Z,23.91
2022-08-03T13:16:53.833Z,23.67
2022-08-03T13:18:55.389Z,24.29
2022-08-03T13:20:56.935Z,24.30
2022-08-03T13:23:00.976Z,23.66
2022-08-03T13:25:03.625Z,24.32
2022-08-03T13:28:00.937Z,24.15
2022-08-03T13:29:26.937Z,23.57
2022-08-03T13:31:28.484Z,23.42
2022-08-03T13:33:31.593Z,23.54
2022-08-03T13:35:33.104Z,23.57
2022-08-03T13:37:35.388Z,23.89
2022-08-03T13:39:57.739Z,24.28
2022-08-03T13:41:58.585Z,24.04
2022-08-03T13:44:26.240Z,24.00
2022-08-03T13:46:21.629Z,24.00
2022-08-03T13:48:36.138Z,23.91
2022-08-03T13:50:43.109Z,24.00
2022-08-03T13:52:44.857Z,24.27
2022-08-03T13:54:46.408Z,24.51
2022-08-03T13:56:49.302Z,23.86
2022-08-03T13:58:50.904Z,23.86
2022-08-03T14:00:52.470Z,23.73
2022-08-03T14:02:57.357Z,23.50
2022-08-03T14:05:05.611Z,23.35
2022-08-03T14:07:08.463Z,23.25
2022-08-03T14:09:10.030Z,23.43
2022-08-03T14:11:12.851Z,23.28
2022-08-03T14:13:17.996Z,23.13
2022-08-03T14:15:19.764Z,23.62
2022-08-03T14:17:23.061Z,23.90
2022-08-03T14:19:25.641Z,24.33
2022-08-03T14:21:27.259Z,24.01
2022-08-03T14:23:30.193Z,24.18
2022-08-03T14:25:43.654Z,24.03
2022-08-03T14:27:53.296Z,24.10
2022-08-03T14:29:54.781Z,23.79
2022-08-03T14:32:11.530Z,23.65
2022-08-03T14:34:14.323Z,23.41
2022-08-03T14:36:15.845Z,23.78
2022-08-03T14:38:18.419Z,23.70
2022-08-03T14:40:21.590Z,23.63
2022-08-03T14:42:23.104Z,23.82
2022-08-03T14:44:24.669Z,24.34
2022-08-03T14:46:26.209Z,24.82
2022-08-03T14:50:33.885Z,25.11
2022-08-03T14:50:51.631Z,24.35
2022-08-03T14:52:53.539Z,24.19
2022-08-03T14:54:55.065Z,24.49
2022-08-03T14:56:57.901Z,24.62
2022-08-03T14:59:00.142Z,24.83
2022-08-03T15:01:01.673Z,24.91
2022-08-03T15:03:04.000Z,24.67
2022-08-03T15:05:06.953Z,24.65
2022-08-03T15:07:08.771Z,24.61
2022-08-03T15:09:21.484Z,25.18
2022-08-03T15:11:24.787Z,24.98
2022-08-03T15:13:27.655Z,25.38
2022-08-03T15:15:29.175Z,25.30
2022-08-03T15:17:30.871Z,25.24
2022-08-03T15:20:00.931Z,25.63
2022-08-03T15:21:56.123Z,25.83
2022-08-03T15:23:57.724Z,25.82
2022-08-03T15:26:06.549Z,25.77
2022-08-03T15:28:20.719Z,25.40
2022-08-03T15:30:23.757Z,25.05
2022-08-03T15:32:25.288Z,25.78
2022-08-03T15:34:27.982Z,25.99
2022-08-03T15:36:29.545Z,25.52
2022-08-03T15:38:31.134Z,25.53
2022-08-03T15:40:32.711Z,25.16
2022-08-03T15:42:34.278Z,25.21
2022-08-03T15:44:35.790Z,24.87
2022-08-03T15:46:38.691Z,25.02
2022-08-03T15:48:40.747Z,24.97
2022-08-03T15:50:42.313Z,25.21
2022-08-03T15:52:45.271Z,25.60
2022-08-03T15:54:46.856Z,25.56
2022-08-03T15:56:48.358Z,25.38
2022-08-03T15:59:10.431Z,25.38
2022-08-03T16:01:12.690Z,26.02
2022-08-03T16:03:18.193Z,25.85
2022-08-03T16:05:19.721Z,25.91
2022-08-03T16:07:21.611Z,26.20
2022-08-03T16:09:42.412Z,26.09
2022-08-03T16:11:44.860Z,26.37
2022-08-03T16:14:13.257Z,26.38
2022-08-03T16:16:07.970Z,25.83
2022-08-03T16:18:09.514Z,25.98
2022-08-03T16:20:34.033Z,26.42
2022-08-03T16:22:40.516Z,26.15
2022-08-03T16:24:44.846Z,26.21
2022-08-03T16:26:46.395Z,26.21
2022-08-03T16:28:47.969Z,26.29
2022-08-03T16:30:49.682Z,26.45
2022-08-03T16:32:51.262Z,26.23
2022-08-03T16:34:52.820Z,26.21
2022-08-03T16:36:55.668Z,26.51
2022-08-03T16:38:57.258Z,26.64
2022-08-03T16:40:58.799Z,26.76
2022-08-03T16:43:00.312Z,26.63
2022-08-03T16:45:01.968Z,26.87
2022-08-03T16:47:03.742Z,27.06
2022-08-03T16:49:05.334Z,26.64
2022-08-03T16:51:06.878Z,26.56
2022-08-03T16:53:15.617Z,26.96
2022-08-03T16:55:51.590Z,27.00
2022-08-03T16:57:58.232Z,27.08
2022-08-03T17:00:01.841Z,26.44
2022-08-03T17:02:09.895Z,27.06
2022-08-03T17:04:13.333Z,27.20
2022-08-03T17:06:16.111Z,27.41
2022-08-03T17:08:26.844Z,27.30
2022-08-03T17:10:29.062Z,27.87
2022-08-03T17:12:30.782Z,28.00
2022-08-03T17:14:33.029Z,28.21
2022-08-03T17:16:34.735Z,28.04
2022-08-03T17:18:47.325Z,28.72
2022-08-03T17:20:50.755Z,28.62
2022-08-03T17:22:58.916Z,28.93
2022-08-03T17:25:07.546Z,28.74
2022-08-03T17:28:48.253Z,29.10
2022-08-03T17:29:36.361Z,29.64
2022-08-03T17:31:49.427Z,29.41
2022-08-03T17:33:54.786Z,29.50
2022-08-03T17:35:56.646Z,30.03
2022-08-03T17:38:03.811Z,29.65
2022-08-03T17:40:09.661Z,30.37
2022-08-03T17:42:26.917Z,29.91
2022-08-03T17:44:37.650Z,30.58
2022-08-03T17:46:45.771Z,31.03
2022-08-03T17:48:48.907Z,31.36
2022-08-03T17:50:54.635Z,31.47
2022-08-03T17:53:15.458Z,30.95
2022-08-03T17:55:55.170Z,31.11
2022-08-03T17:58:02.273Z,31.52
2022-08-03T18:00:06.876Z,32.05
2022-08-03T18:02:30.823Z,31.68
2022-08-03T18:04:37.927Z,31.87
2022-08-03T18:06:55.821Z,31.63
2022-08-03T18:09:00.191Z,32.00
2022-08-03T18:11:09.908Z,32.13
2022-08-03T18:13:22.797Z,32.35
2022-08-03T18:15:28.787Z,32.68
2022-08-03T18:17:55.947Z,32.37
2022-08-03T18:20:03.506Z,32.42
2022-08-03T18:22:11.882Z,32.73
2022-08-03T18:24:15.959Z,32.85
2022-08-03T18:26:20.187Z,33.09
2022-08-03T18:28:25.573Z,33.38
2022-08-03T18:30:29.129Z,33.09
2022-08-03T18:32:30.720Z,33.61
2022-08-03T18:34:36.185Z,33.58
2022-08-03T18:36:46.528Z,34.01
2022-08-03T18:38:49.750Z,34.27
2022-08-03T18:40:51.625Z,34.26
2022-08-03T18:42:54.860Z,34.36
2022-08-03T18:44:57.123Z,34.60
2022-08-03T18:47:21.039Z,34.70
2022-08-03T18:49:36.090Z,34.68
2022-08-03T18:51:43.301Z,35.55
2022-08-03T18:54:03.222Z,35.34
2022-08-03T18:56:23.193Z,35.77
2022-08-03T18:58:34.586Z,35.85
2022-08-03T19:00:42.605Z,36.02
2022-08-03T19:03:00.060Z,36.53
2022-08-03T19:05:05.699Z,36.65
2022-08-03T19:07:11.224Z,36.77
2022-08-03T19:09:23.627Z,36.72
2022-08-03T19:12:14.535Z,36.89
2022-08-03T19:14:02.212Z,37.25
2022-08-03T19:16:08.495Z,37.07
2022-08-03T19:18:14.567Z,36.90
2022-08-03T19:20:20.075Z,37.32
2022-08-03T19:22:22.365Z,37.53
2022-08-03T19:24:26.201Z,37.99
2022-08-03T19:26:30.926Z,38.35
2022-08-03T19:28:33.783Z,38.90
2022-08-03T19:30:38.813Z,39.22
2022-08-03T19:32:48.311Z,38.84
2022-08-03T19:34:50.983Z,39.13
2022-08-03T19:36:54.588Z,38.90
2022-08-03T19:38:57.649Z,38.73
2022-08-03T19:41:02.623Z,39.10
2022-08-03T19:43:17.410Z,39.44
2022-08-03T19:46:05.454Z,39.65
2022-08-03T19:47:58.278Z,39.96
2022-08-03T19:50:14.173Z,40.20
2022-08-03T19:52:20.640Z,40.74
2022-08-03T19:54:32.308Z,41.28
2022-08-03T19:56:34.573Z,41.63
2022-08-03T19:58:37.165Z,42.04
2022-08-03T20:00:40.313Z,42.43
2022-08-03T20:02:50.969Z,42.45
2022-08-03T20:04:54.154Z,43.15
2022-08-03T20:06:57.049Z,43.05
2022-08-03T20:08:59.492Z,43.40
2022-08-03T20:11:01.856Z,44.04
2022-08-03T20:13:03.512Z,43.75
2022-08-03T20:15:06.805Z,44.03
2022-08-03T20:17:09.262Z,44.68
2022-08-03T20:19:14.309Z,44.74
2022-08-03T20:21:17.644Z,45.06
2022-08-03T20:23:20.040Z,44.92
2022-08-03T20:25:38.469Z,44.99
2022-08-03T20:28:07.912Z,44.94
2022-08-03T20:30:08.070Z,45.25
2022-08-03T20:32:09.745Z,44.53
2022-08-03T20:34:11.891Z,44.90
2022-08-03T20:36:20.345Z,44.85
2022-08-03T20:38:27.093Z,45.19
2022-08-03T20:40:28.982Z,45.60
2022-08-03T20:42:30.781Z,45.04
2022-08-03T20:44:32.330Z,46.30
2022-08-03T20:46:50.183Z,46.81
2022-08-03T20:48:58.809Z,47.07
2022-08-03T20:51:01.883Z,47.05
2022-08-03T20:53:06.587Z,47.31
2022-08-03T20:55:12.838Z,47.53
2022-08-03T20:57:16.435Z,47.63
2022-08-03T20:59:19.806Z,47.46
2022-08-03T21:01:27.497Z,48.16
2022-08-03T21:03:40.513Z,48.22
2022-08-03T21:05:51.851Z,48.65
2022-08-03T21:08:05.584Z,48.53
2022-08-03T21:10:15.378Z,48.64
2022-08-03T21:12:23.648Z,48.47
2022-08-03T21:14:37.523Z,49.04
2022-08-03T21:16:41.404Z,49.16
2022-08-03T21:18:45.531Z,49.41
2022-08-03T21:20:48.239Z,49.11
2022-08-03T21:22:53.039Z,49.29
2022-08-03T21:24:55.993Z,49.36
2022-08-03T21:27:00.093Z,49.95
2022-08-03T21:29:01.584Z,49.65
2022-08-03T21:31:04.105Z,48.04
2022-08-03T21:33:05.687Z,48.54
2022-08-03T21:35:09.694Z,49.96
2022-08-03T21:37:13.185Z,49.86
2022-08-03T21:39:16.154Z,49.67
2022-08-03T21:41:17.773Z,49.76
2022-08-03T21:43:21.273Z,49.98
2022-08-03T21:45:22.816Z,49.75
2022-08-03T21:47:24.756Z,49.78
2022-08-03T21:50:04.513Z,50.32
2022-08-03T21:51:53.617Z,50.86
2022-08-03T21:54:04.317Z,50.55
2022-08-03T21:56:08.985Z,50.85
2022-08-03T21:58:13.607Z,50.92
2022-08-03T22:00:20.041Z,50.78
2022-08-03T22:02:25.550Z,50.70
2022-08-03T22:04:53.030Z,50.51
2022-08-03T22:06:49.379Z,49.81
2022-08-03T22:08:52.024Z,49.92
2022-08-03T22:10:53.719Z,50.23
2022-08-03T22:12:55.691Z,49.66
2022-08-03T22:15:01.088Z,49.39
2022-08-03T22:17:07.210Z,49.25
2022-08-03T22:19:08.791Z,49.36
2022-08-03T22:21:12.500Z,49.73
2022-08-03T22:23:16.403Z,49.22
2022-08-03T22:25:23.447Z,49.54
2022-08-03T22:27:27.139Z,50.21
2022-08-03T22:29:29.959Z,50.32
2022-08-03T22:31:58.657Z,50.28
2022-08-03T22:33:55.268Z,50.13
2022-08-03T22:35:58.365Z,49.86
2022-08-03T22:38:04.787Z,50.24
2022-08-03T22:40:10.209Z,50.59
2022-08-03T22:42:12.374Z,50.82
2022-08-03T22:44:14.191Z,51.18
2022-08-03T22:46:18.684Z,51.70
2022-08-03T22:48:21.254Z,51.87
2022-08-03T22:50:32.429Z,52.12
2022-08-03T22:52:36.897Z,52.51
2022-08-03T22:54:38.479Z,52.50
2022-08-03T22:56:40.531Z,52.63
2022-08-03T22:58:42.081Z,52.69
2022-08-03T23:00:46.970Z,53.00
2022-08-03T23:02:56.710Z,52.87
2022-08-03T23:05:03.596Z,53.10
2022-08-03T23:07:11.179Z,53.19
2022-08-03T23:09:15.921Z,53.09
2022-08-03T23:11:18.695Z,53.52
2022-08-03T23:13:24.690Z,53.67
2022-08-03T23:15:29.522Z,54.12
2022-08-03T23:17:32.115Z,54.31
2022-08-03T23:19:41.694Z,53.99
2022-08-03T23:22:00.119Z,53.70
2022-08-03T23:24:06.679Z,53.86
2022-08-03T23:26:28.146Z,53.73
2022-08-03T23:28:31.913Z,54.15
2022-08-03T23:30:34.444Z,54.56
2022-08-03T23:32:36.529Z,54.87
2022-08-03T23:34:39.503Z,55.50
2022-08-03T23:36:42.453Z,55.69
2022-08-03T23:38:44.880Z,55.42
2022-08-03T23:40:51.261Z,55.52
2022-08-03T23:42:53.220Z,55.72
2022-08-03T23:44:59.468Z,55.77
2022-08-03T23:47:07.050Z,55.99
2022-08-03T23:49:08.590Z,56.24
2022-08-03T23:51:19.436Z,56.70
2022-08-03T23:53:28.637Z,56.48
2022-08-03T23:55:44.333Z,57.04
2022-08-03T23:58:03.941Z,57.03
